createdAt,value
2019-06-20T00:00:59.349Z,23.20
2019-06-20T00:03:23.821Z,23.15
2019-06-20T00:06:04.276Z,23.27
2019-06-20T00:08:28.757Z,23.24
2019-06-20T00:13:52.781Z,23.22
2019-06-20T00:16:17.292Z,23.23
2019-06-20T00:18:41.780Z,23.17
2019-06-20T00:21:06.263Z,23.17
2019-06-20T00:23:30.748Z,23.14
2019-06-20T00:25:55.229Z,23.08
2019-06-20T00:28:25.023Z,22.98
2019-06-20T00:30:49.560Z,23.03
2019-06-20T00:33:14.028Z,23.11
2019-06-20T00:35:38.538Z,23.03
2019-06-20T00:38:03.173Z,22.96
2019-06-20T00:40:27.648Z,22.78
2019-06-20T00:42:52.519Z,22.82
2019-06-20T00:45:42.429Z,22.64
2019-06-20T00:48:06.903Z,22.76
2019-06-20T00:50:31.390Z,22.27
2019-06-20T00:52:55.870Z,22.56
2019-06-20T00:55:20.359Z,22.81
2019-06-20T00:57:44.830Z,22.71
2019-06-20T01:00:30.123Z,22.51
2019-06-20T01:02:54.666Z,22.64
2019-06-20T01:05:19.325Z,22.46
2019-06-20T01:07:43.779Z,22.11
2019-06-20T01:10:29.080Z,22.49
2019-06-20T01:12:53.534Z,22.49
2019-06-20T01:18:24.236Z,22.13
2019-06-20T01:20:48.807Z,22.38
2019-06-20T01:23:13.348Z,22.35
2019-06-20T01:25:58.610Z,22.53
2019-06-20T01:28:23.085Z,22.06
2019-06-20T01:30:48.074Z,22.24
2019-06-20T01:33:12.701Z,21.53
2019-06-20T01:35:37.224Z,21.66
2019-06-20T01:40:41.556Z,21.75
2019-06-20T01:43:06.037Z,20.57
2019-06-20T01:45:30.648Z,21.67
2019-06-20T01:47:55.140Z,21.94
2019-06-20T01:50:19.674Z,21.43
2019-06-20T01:53:03.510Z,20.87
2019-06-20T01:55:27.971Z,21.66
2019-06-20T01:57:52.458Z,20.77
2019-06-20T02:00:32.865Z,20.77
2019-06-20T02:02:57.360Z,21.42
2019-06-20T02:05:21.884Z,21.29
2019-06-20T02:07:46.353Z,21.35
2019-06-20T02:10:10.972Z,21.62
2019-06-20T02:12:35.438Z,21.80
2019-06-20T02:14:59.911Z,21.87
2019-06-20T02:17:24.388Z,22.00
2019-06-20T02:19:48.882Z,21.87
2019-06-20T02:22:13.436Z,21.91
2019-06-20T02:24:37.927Z,21.93
2019-06-20T02:27:02.533Z,21.78
2019-06-20T02:29:27.031Z,21.88
2019-06-20T02:31:51.504Z,21.07
2019-06-20T02:34:16.069Z,20.52
2019-06-20T02:36:40.570Z,20.71
2019-06-20T02:39:25.851Z,21.04
2019-06-20T02:41:50.300Z,20.39
2019-06-20T02:44:29.394Z,21.23
2019-06-20T02:46:47.031Z,21.46
2019-06-20T02:49:11.592Z,21.29
2019-06-20T02:51:36.076Z,21.41
2019-06-20T02:54:00.560Z,21.20
2019-06-20T02:56:25.099Z,21.35
2019-06-20T02:58:49.669Z,20.88
2019-06-20T03:01:14.241Z,20.51
2019-06-20T03:03:38.783Z,20.56
2019-06-20T03:06:03.320Z,20.90
2019-06-20T03:08:27.965Z,20.60
2019-06-20T03:11:11.799Z,20.55
2019-06-20T03:13:36.277Z,20.51
2019-06-20T03:16:00.783Z,20.66
2019-06-20T03:18:25.280Z,20.37
2019-06-20T03:20:49.795Z,20.39
2019-06-20T03:23:14.420Z,20.54
2019-06-20T03:25:38.957Z,20.87
2019-06-20T03:28:03.598Z,20.48
2019-06-20T03:30:28.207Z,20.24
2019-06-20T03:32:52.698Z,20.14
2019-06-20T03:35:17.286Z,20.37
2019-06-20T03:37:41.837Z,20.55
2019-06-20T03:40:06.635Z,20.56
2019-06-20T03:42:31.126Z,20.57
2019-06-20T03:45:02.089Z,20.40
2019-06-20T03:47:43.836Z,20.03
2019-06-20T03:50:08.631Z,19.41
2019-06-20T03:52:33.127Z,19.96
2019-06-20T03:54:57.656Z,19.96
2019-06-20T03:57:22.183Z,19.36
2019-06-20T04:00:07.468Z,19.76
2019-06-20T04:02:32.056Z,19.68
2019-06-20T04:04:56.523Z,19.81
2019-06-20T04:07:20.994Z,20.16
2019-06-20T04:09:45.469Z,19.75
2019-06-20T04:12:09.961Z,19.97
2019-06-20T04:14:34.456Z,20.10
2019-06-20T04:16:58.923Z,19.71
2019-06-20T04:19:30.443Z,19.72
2019-06-20T04:21:54.906Z,20.09
2019-06-20T04:24:19.408Z,20.35
2019-06-20T04:26:43.873Z,20.23
2019-06-20T04:29:08.374Z,20.27
2019-06-20T04:31:32.838Z,20.79
2019-06-20T04:33:57.332Z,20.28
2019-06-20T04:36:21.814Z,20.52
2019-06-20T04:39:15.612Z,20.49
2019-06-20T04:41:29.015Z,20.83
2019-06-20T04:43:53.501Z,20.65
2019-06-20T04:46:37.089Z,20.72
2019-06-20T04:49:01.624Z,20.94
2019-06-20T04:51:26.059Z,20.68
2019-06-20T04:53:50.545Z,20.99
2019-06-20T04:56:20.432Z,21.21
2019-06-20T04:58:44.936Z,20.93
2019-06-20T05:01:09.393Z,20.81
2019-06-20T05:03:33.906Z,20.91
2019-06-20T05:05:58.463Z,20.69
2019-06-20T05:08:22.934Z,21.09
2019-06-20T05:10:47.441Z,20.77
2019-06-20T05:13:11.908Z,21.32
2019-06-20T05:15:51.578Z,21.39
2019-06-20T05:18:08.275Z,20.63
2019-06-20T05:23:36.723Z,20.45
2019-06-20T05:26:24.867Z,20.95
2019-06-20T05:28:49.342Z,20.47
2019-06-20T05:31:19.876Z,20.29
2019-06-20T05:33:44.355Z,20.35
2019-06-20T05:36:08.911Z,20.12
2019-06-20T05:41:43.846Z,20.09
2019-06-20T05:44:24.262Z,20.24
2019-06-20T05:46:48.752Z,20.01
2019-06-20T05:49:13.228Z,20.09
2019-06-20T05:51:39.850Z,20.19
2019-06-20T05:54:09.172Z,20.19
2019-06-20T05:59:27.798Z,20.13
2019-06-20T06:01:56.115Z,20.53
2019-06-20T06:04:40.163Z,20.74
2019-06-20T06:07:05.190Z,20.40
2019-06-20T06:09:36.838Z,20.48
2019-06-20T06:12:01.332Z,20.01
2019-06-20T06:14:25.876Z,20.34
2019-06-20T06:16:50.380Z,20.48
2019-06-20T06:19:14.850Z,20.49
2019-06-20T06:21:39.402Z,20.59
2019-06-20T06:24:04.060Z,21.01
2019-06-20T06:26:46.507Z,21.09
2019-06-20T06:29:11.039Z,20.83
2019-06-20T06:31:35.544Z,20.91
2019-06-20T06:36:36.353Z,20.99
2019-06-20T06:39:00.820Z,20.45
2019-06-20T06:41:25.386Z,20.52
2019-06-20T06:43:49.874Z,20.75
2019-06-20T06:46:43.629Z,20.87
2019-06-20T06:48:57.051Z,21.04
2019-06-20T06:51:38.287Z,21.08
2019-06-20T06:54:02.960Z,21.29
2019-06-20T06:56:27.582Z,20.93
2019-06-20T06:58:52.185Z,21.01
2019-06-20T07:01:16.776Z,20.64
2019-06-20T07:03:41.430Z,20.89
2019-06-20T07:06:05.996Z,21.13
2019-06-20T07:08:30.464Z,21.16
2019-06-20T07:10:55.050Z,21.28
2019-06-20T07:13:36.008Z,21.18
2019-06-20T07:16:00.511Z,21.33
2019-06-20T07:18:24.984Z,21.94
2019-06-20T07:20:49.533Z,21.97
2019-06-20T07:23:14.094Z,21.70
2019-06-20T07:25:38.647Z,22.15
2019-06-20T07:28:03.219Z,22.04
2019-06-20T07:30:27.758Z,21.76
2019-06-20T07:32:52.256Z,21.66
2019-06-20T07:35:16.976Z,21.50
2019-06-20T07:37:41.598Z,21.35
2019-06-20T07:40:26.883Z,21.38
2019-06-20T07:42:51.375Z,21.23
2019-06-20T07:45:36.638Z,21.16
2019-06-20T07:48:01.205Z,21.62
2019-06-20T07:50:25.823Z,21.88
2019-06-20T07:53:01.334Z,21.80
2019-06-20T07:55:22.485Z,22.42
2019-06-20T07:57:47.108Z,22.34
2019-06-20T08:00:32.367Z,22.13
2019-06-20T08:02:56.878Z,22.08
2019-06-20T08:05:21.715Z,22.12
2019-06-20T08:07:46.269Z,22.12
2019-06-20T08:13:09.480Z,23.13
2019-06-20T08:15:34.138Z,22.37
2019-06-20T08:17:58.682Z,22.36
2019-06-20T08:20:38.998Z,22.44
2019-06-20T08:23:03.570Z,22.43
2019-06-20T08:25:28.132Z,22.58
2019-06-20T08:30:54.652Z,22.28
2019-06-20T08:33:19.162Z,22.58
2019-06-20T08:35:43.719Z,22.21
2019-06-20T08:38:08.304Z,22.26
2019-06-20T08:43:32.274Z,22.49
2019-06-20T08:45:57.847Z,22.08
2019-06-20T08:48:28.208Z,22.18
2019-06-20T08:50:52.703Z,22.39
2019-06-20T08:53:17.280Z,22.56
2019-06-20T08:55:41.960Z,22.27
2019-06-20T08:58:06.595Z,23.09
2019-06-20T09:03:30.955Z,22.61
2019-06-20T09:05:57.116Z,22.08
2019-06-20T09:08:26.887Z,22.52
2019-06-20T09:11:07.214Z,22.50
2019-06-20T09:13:31.789Z,22.66
2019-06-20T09:15:56.755Z,22.32
2019-06-20T09:18:28.069Z,22.72
2019-06-20T09:20:53.998Z,22.70
2019-06-20T09:23:24.335Z,22.63
2019-06-20T09:26:07.326Z,22.37
2019-06-20T09:28:31.826Z,22.37
2019-06-20T09:30:57.115Z,22.06
2019-06-20T09:33:44.098Z,22.28
2019-06-20T09:36:08.665Z,22.33
2019-06-20T09:41:28.267Z,22.91
2019-06-20T09:43:52.779Z,23.04
2019-06-20T09:46:35.986Z,23.27
2019-06-20T09:49:00.497Z,24.01
2019-06-20T09:51:24.992Z,24.03
2019-06-20T09:53:49.916Z,24.14
2019-06-20T09:56:21.210Z,23.73
2019-06-20T09:58:46.907Z,24.02
2019-06-20T10:01:17.097Z,23.67
2019-06-20T10:06:34.642Z,22.29
2019-06-20T10:08:59.118Z,22.88
2019-06-20T10:11:23.641Z,22.79
2019-06-20T10:13:48.262Z,23.32
2019-06-20T10:16:12.832Z,23.57
2019-06-20T10:18:37.427Z,24.08
2019-06-20T10:21:01.915Z,24.22
2019-06-20T10:26:02.461Z,24.25
2019-06-20T10:31:03.502Z,24.61
2019-06-20T10:33:45.732Z,23.93
2019-06-20T10:36:28.507Z,24.26
2019-06-20T10:38:52.942Z,24.26
2019-06-20T10:41:33.804Z,24.96
2019-06-20T10:43:58.281Z,24.96
2019-06-20T10:46:22.883Z,24.86
2019-06-20T10:48:48.012Z,24.94
2019-06-20T10:51:38.595Z,24.58
2019-06-20T10:54:03.135Z,24.91
2019-06-20T10:56:27.625Z,25.05
2019-06-20T10:58:52.171Z,24.97
2019-06-20T11:04:12.488Z,25.80
2019-06-20T11:06:37.463Z,25.62
2019-06-20T11:09:02.021Z,25.46
2019-06-20T11:11:26.513Z,25.90
2019-06-20T11:13:50.979Z,25.80
2019-06-20T11:16:15.505Z,25.03
2019-06-20T11:18:40.037Z,25.06
2019-06-20T11:23:41.423Z,25.68
2019-06-20T11:26:06.041Z,25.79
2019-06-20T11:28:30.545Z,25.93
2019-06-20T11:31:00.063Z,24.79
2019-06-20T11:33:45.676Z,24.87
2019-06-20T11:36:10.280Z,25.02
2019-06-20T11:38:34.798Z,24.86
2019-06-20T11:40:59.385Z,25.53
2019-06-20T11:43:23.864Z,25.87
2019-06-20T11:45:48.399Z,25.63
2019-06-20T11:48:13.059Z,25.80
2019-06-20T11:50:37.972Z,26.14
2019-06-20T11:53:02.734Z,25.64
2019-06-20T11:55:27.291Z,25.45
2019-06-20T12:06:06.127Z,26.27
2019-06-20T12:11:06.301Z,26.06
2019-06-20T12:13:30.821Z,26.27
2019-06-20T12:15:55.432Z,25.47
2019-06-20T12:18:19.943Z,26.31
2019-06-20T12:23:38.081Z,26.42
2019-06-20T12:26:03.171Z,26.39
2019-06-20T12:28:27.673Z,26.52
2019-06-20T12:30:52.223Z,26.23
2019-06-20T12:35:52.537Z,27.03
2019-06-20T12:38:17.142Z,26.87
2019-06-20T12:40:42.554Z,26.63
2019-06-20T12:43:13.720Z,26.97
2019-06-20T12:45:39.710Z,27.36
2019-06-20T12:48:09.880Z,27.71
2019-06-20T12:50:34.384Z,26.96
2019-06-20T12:52:58.990Z,27.14
2019-06-20T12:55:23.537Z,26.91
2019-06-20T12:57:48.506Z,26.18
2019-06-20T13:00:33.966Z,25.55
2019-06-20T13:02:58.654Z,26.82
2019-06-20T13:05:44.911Z,26.56
2019-06-20T13:10:46.281Z,26.58
2019-06-20T13:13:10.785Z,26.69
2019-06-20T13:15:35.270Z,26.44
2019-06-20T13:17:59.731Z,25.49
2019-06-20T13:23:17.939Z,25.60
2019-06-20T13:25:42.661Z,25.21
2019-06-20T13:28:07.126Z,24.83
2019-06-20T13:30:31.690Z,25.13
2019-06-20T13:32:56.166Z,25.88
2019-06-20T13:38:00.942Z,25.20
2019-06-20T13:40:47.224Z,25.66
2019-06-20T13:43:11.836Z,26.43
2019-06-20T13:48:12.320Z,25.99
2019-06-20T13:50:36.819Z,25.99
2019-06-20T13:53:01.483Z,26.72
2019-06-20T13:55:26.304Z,26.17
2019-06-20T13:57:50.844Z,25.74
2019-06-20T14:00:36.161Z,25.99
2019-06-20T14:03:00.795Z,26.32
2019-06-20T14:05:25.254Z,26.36
2019-06-20T14:07:53.512Z,26.78
2019-06-20T14:10:44.178Z,27.61
2019-06-20T14:13:18.656Z,27.59
2019-06-20T14:15:56.532Z,27.10
2019-06-20T14:18:21.045Z,26.50
2019-06-20T14:20:46.707Z,26.38
2019-06-20T14:23:35.869Z,26.50
2019-06-20T14:26:00.432Z,26.31
2019-06-20T14:28:24.911Z,27.52
2019-06-20T14:33:25.312Z,26.75
2019-06-20T14:38:25.567Z,27.28
2019-06-20T14:40:50.056Z,27.46
2019-06-20T14:43:14.628Z,28.18
2019-06-20T14:48:15.297Z,27.68
2019-06-20T14:53:21.844Z,26.97
2019-06-20T14:55:47.666Z,27.85
2019-06-20T14:58:36.983Z,26.95
2019-06-20T15:03:37.707Z,28.59
2019-06-20T15:06:02.215Z,27.42
2019-06-20T15:08:26.733Z,27.12
2019-06-20T15:10:51.860Z,27.79
2019-06-20T15:13:22.996Z,27.52
2019-06-20T15:15:47.846Z,27.88
2019-06-20T15:18:35.975Z,27.16
2019-06-20T15:21:00.494Z,27.90
2019-06-20T15:23:24.987Z,28.38
2019-06-20T15:25:50.377Z,27.28
2019-06-20T15:28:21.145Z,27.49
2019-06-20T15:30:47.103Z,28.64
2019-06-20T15:33:33.316Z,28.15
2019-06-20T15:35:58.398Z,28.64
2019-06-20T15:38:29.479Z,27.69
2019-06-20T15:40:55.343Z,28.03
2019-06-20T15:43:25.437Z,27.36
2019-06-20T15:45:50.231Z,27.14
2019-06-20T15:48:37.909Z,27.73
2019-06-20T15:51:02.471Z,27.26
2019-06-20T15:53:26.974Z,27.20
2019-06-20T15:55:51.590Z,26.51
2019-06-20T16:00:52.445Z,27.73
2019-06-20T16:03:17.035Z,27.05
2019-06-20T16:05:41.508Z,27.20
2019-06-20T16:08:06.081Z,27.88
2019-06-20T16:10:30.599Z,28.64
2019-06-20T16:12:55.234Z,28.39
2019-06-20T16:15:39.055Z,28.21
2019-06-20T16:18:03.699Z,28.04
2019-06-20T16:20:28.319Z,28.29
2019-06-20T16:22:52.888Z,28.68
2019-06-20T16:25:17.431Z,28.70
2019-06-20T16:27:48.166Z,28.96
2019-06-20T16:32:52.861Z,28.05
2019-06-20T16:35:17.768Z,28.27
2019-06-20T16:37:42.283Z,28.13
2019-06-20T16:40:27.549Z,28.35
2019-06-20T16:42:52.051Z,28.70
2019-06-20T16:47:57.022Z,27.49
2019-06-20T16:50:21.643Z,27.61
2019-06-20T16:52:46.294Z,26.73
2019-06-20T16:55:10.901Z,26.45
2019-06-20T17:03:17.848Z,27.56
2019-06-20T17:05:42.473Z,26.63
2019-06-20T17:08:07.125Z,26.36
2019-06-20T17:10:31.654Z,26.56
2019-06-20T17:12:56.231Z,27.22
2019-06-20T17:18:00.958Z,27.70
2019-06-20T17:20:25.583Z,26.81
2019-06-20T17:25:26.795Z,27.52
2019-06-20T17:27:51.302Z,26.15
2019-06-20T17:33:15.222Z,26.48
2019-06-20T17:35:39.819Z,26.36
2019-06-20T17:38:04.504Z,27.04
2019-06-20T17:43:05.404Z,27.01
2019-06-20T17:45:29.966Z,27.54
2019-06-20T17:47:54.492Z,27.85
2019-06-20T17:50:19.228Z,27.53
2019-06-20T17:52:43.830Z,27.88
2019-06-20T17:58:07.786Z,27.48
2019-06-20T18:03:08.952Z,27.88
2019-06-20T18:05:33.436Z,28.00
2019-06-20T18:07:57.984Z,27.09
2019-06-20T18:10:22.627Z,27.68
2019-06-20T18:12:47.165Z,27.74
2019-06-20T18:15:33.962Z,27.94
2019-06-20T18:17:58.603Z,27.67
2019-06-20T18:20:43.898Z,27.68
2019-06-20T18:23:08.428Z,27.87
2019-06-20T18:25:33.009Z,27.76
2019-06-20T18:27:57.469Z,27.85
2019-06-20T18:30:43.019Z,27.23
2019-06-20T18:33:07.577Z,27.60
2019-06-20T18:38:08.451Z,27.34
2019-06-20T18:40:32.956Z,27.52
2019-06-20T18:42:57.437Z,27.49
2019-06-20T18:47:58.142Z,27.42
2019-06-20T18:52:58.319Z,27.28
2019-06-20T18:55:22.808Z,27.16
2019-06-20T18:57:47.413Z,26.93
2019-06-20T19:03:10.777Z,27.21
2019-06-20T19:05:35.341Z,27.22
2019-06-20T19:08:05.904Z,26.99
2019-06-20T19:10:33.471Z,27.08
2019-06-20T19:13:01.698Z,27.05
2019-06-20T19:15:26.528Z,26.95
2019-06-20T19:17:51.033Z,26.91
2019-06-20T19:20:15.706Z,26.86
2019-06-20T19:22:40.215Z,26.89
2019-06-20T19:25:25.537Z,26.92
2019-06-20T19:43:08.940Z,23.89
2019-06-20T19:45:51.446Z,23.60
2019-06-20T19:48:16.058Z,24.29
2019-06-20T19:50:42.658Z,23.64
2019-06-20T19:53:07.681Z,23.64
2019-06-20T19:55:32.206Z,23.82
2019-06-20T19:57:56.808Z,24.14
2019-06-20T20:00:21.610Z,23.88
2019-06-20T20:02:46.200Z,24.01
2019-06-20T20:05:19.020Z,23.86
2019-06-20T20:07:37.715Z,23.86
2019-06-20T20:11:00.717Z,23.88
2019-06-20T20:12:34.850Z,23.83
2019-06-20T20:14:59.315Z,23.75
2019-06-20T20:17:24.139Z,23.80
2019-06-20T20:19:48.606Z,23.80
2019-06-20T20:22:13.095Z,23.61
2019-06-20T20:24:37.889Z,23.69
2019-06-20T20:27:02.443Z,23.74
2019-06-20T20:29:27.075Z,23.71
2019-06-20T20:31:51.790Z,23.50
2019-06-20T20:34:16.290Z,23.62
2019-06-20T20:36:41.800Z,23.63
2019-06-20T20:39:07.987Z,23.40
2019-06-20T20:41:32.556Z,21.88
2019-06-20T20:43:57.071Z,21.28
2019-06-20T20:46:21.616Z,20.96
2019-06-20T20:48:46.773Z,21.23
2019-06-20T20:51:11.673Z,22.01
2019-06-20T20:53:36.144Z,22.24
2019-06-20T20:56:02.466Z,22.49
2019-06-20T20:58:26.833Z,22.54
2019-06-20T21:01:06.068Z,22.52
2019-06-20T21:03:30.584Z,22.67
2019-06-20T21:05:55.069Z,22.72
2019-06-20T21:08:19.575Z,22.04
2019-06-20T21:10:45.275Z,22.79
2019-06-20T21:13:09.828Z,22.93
2019-06-20T21:15:34.283Z,22.75
2019-06-20T21:17:58.782Z,22.83
2019-06-20T21:20:23.386Z,22.97
2019-06-20T21:22:47.881Z,23.12
2019-06-20T21:25:13.208Z,23.04
2019-06-20T21:27:37.704Z,22.98
2019-06-20T21:30:02.265Z,22.90
2019-06-20T21:32:26.814Z,22.94
2019-06-20T21:34:51.301Z,22.94
2019-06-20T21:37:15.764Z,22.78
2019-06-20T21:39:40.340Z,22.81
2019-06-20T21:42:04.889Z,22.66
2019-06-20T21:44:29.392Z,22.39
2019-06-20T21:46:53.866Z,22.48
2019-06-20T21:49:18.373Z,22.60
2019-06-20T21:51:44.738Z,22.33
2019-06-20T21:54:09.234Z,22.08
2019-06-20T21:56:33.777Z,22.39
2019-06-20T21:58:58.261Z,21.26
2019-06-20T22:01:22.862Z,21.32
2019-06-20T22:03:47.410Z,20.95
2019-06-20T22:06:23.333Z,21.69
2019-06-20T22:08:38.141Z,21.28
2019-06-20T22:11:02.686Z,21.10
2019-06-20T22:13:27.472Z,21.77
2019-06-20T22:15:51.893Z,21.42
2019-06-20T22:18:16.408Z,21.67
2019-06-20T22:20:40.945Z,21.47
2019-06-20T22:23:05.851Z,21.54
2019-06-20T22:25:30.492Z,21.24
2019-06-20T22:27:55.047Z,21.42
2019-06-20T22:30:22.596Z,20.71
2019-06-20T22:32:47.215Z,21.24
2019-06-20T22:35:12.086Z,21.27
2019-06-20T22:37:36.615Z,21.62
2019-06-20T22:40:01.108Z,21.28
2019-06-20T22:42:25.572Z,20.50
2019-06-20T22:44:50.140Z,21.05
2019-06-20T22:47:14.607Z,20.88
2019-06-20T22:49:39.113Z,20.98
2019-06-20T22:52:03.562Z,20.70
2019-06-20T22:54:28.056Z,20.83
2019-06-20T22:56:52.561Z,20.95
2019-06-20T22:59:17.053Z,21.29
2019-06-20T23:01:41.512Z,20.06
2019-06-20T23:04:06.024Z,20.73
2019-06-20T23:06:30.567Z,19.89
2019-06-20T23:08:55.094Z,20.01
2019-06-20T23:11:19.585Z,20.58
2019-06-20T23:13:44.113Z,20.49
2019-06-20T23:16:08.647Z,21.01
2019-06-20T23:18:33.155Z,21.24
2019-06-20T23:21:04.643Z,21.22
2019-06-20T23:23:23.897Z,21.24
2019-06-20T23:25:50.059Z,21.52
2019-06-20T23:28:14.596Z,20.98
2019-06-20T23:30:39.487Z,21.59
2019-06-20T23:33:04.107Z,21.52
2019-06-20T23:35:28.606Z,21.74
2019-06-20T23:37:53.086Z,21.54
2019-06-20T23:40:18.672Z,21.82
2019-06-20T23:42:43.109Z,21.50
2019-06-20T23:45:08.449Z,21.34
2019-06-20T23:47:32.952Z,21.48
2019-06-20T23:49:57.605Z,21.75
2019-06-20T23:52:26.647Z,21.84
2019-06-20T23:54:51.114Z,21.83
2019-06-20T23:57:15.623Z,21.39
2019-06-20T23:59:40.159Z,21.73
